Terminal Aerodrome Forecast
Issued by NWS Sterling, VA

Home | Current Version | Previous Version | Text Only | Print | Product List | Glossary On
Versions: 1 2 3 4 5 6 7 8 9 10 11 12 13 14 15 16 17 18 19 20
268
FTUS41 KLWX 240802 AAA
TAFCHO
TAF AMD
KCHO 240802Z 2408/2506 20008KT 4SM BR OVC002
     FM241100 22004KT P6SM SCT005 BKN015
     FM241300 23005KT P6SM SCT030
     FM250300 29005KT P6SM SCT070=

USA.gov is the U.S. government's official web portal to all federal, state and local government web resources and services.